Terminal Aerodrome Forecast
Issued by NWS

Home | Current Version | Previous Version | Text Only | Print | Product List | Glossary On
Versions: 1 2 3 4 5 6 7 8 9 10 11 12 13 14 15 16 17 18 19 20 21 22 23 24 25 26 27 28 29
000
FTUS43 KLOT 250200 AAB
TAFDPA
TAF AMD
KDPA 250257Z 2503/2524 28013KT P6SM OVC010
      TEMPO 2503/2506 -DZ BKN008
     FM250600 28013KT P6SM SCT009 OVC013
     FM251300 25013KT P6SM BKN010 OVC015
     FM251800 22014KT P6SM SCT015 BKN200
     FM252100 20013KT P6SM FEW020 BKN200=

USA.gov is the U.S. government's official web portal to all federal, state and local government web resources and services.